sensor_id;sensor_type;location;lat;lon;timestamp;P1;durP1;ratioP1;P2;durP2;ratioP2
13834;SDS011;6988;52.614;13.500;2023-07-31T00:00:38;4.00;;;1.90;;
13834;SDS011;6988;52.614;13.500;2023-07-31T00:05:29;5.30;;;2.13;;
13834;SDS011;6988;52.614;13.500;2023-07-31T00:10:21;4.50;;;1.83;;
13834;SDS011;6988;52.614;13.500;2023-07-31T00:15:13;4.30;;;1.67;;
13834;SDS011;6988;52.614;13.500;2023-07-31T00:20:07;5.60;;;1.80;;
13834;SDS011;6988;52.614;13.500;2023-07-31T00:25:00;3.47;;;1.70;;
13834;SDS011;6988;52.614;13.500;2023-07-31T00:29:52;6.77;;;1.80;;
13834;SDS011;6988;52.614;13.500;2023-07-31T00:34:43;3.97;;;1.57;;
13834;SDS011;6988;52.614;13.500;2023-07-31T00:39:36;4.43;;;1.40;;
13834;SDS011;6988;52.614;13.500;2023-07-31T00:44:29;3.83;;;1.90;;
13834;SDS011;6988;52.614;13.500;2023-07-31T00:49:21;3.17;;;2.07;;
13834;SDS011;6988;52.614;13.500;2023-07-31T00:54:13;3.87;;;2.00;;
13834;SDS011;6988;52.614;13.500;2023-07-31T00:59:07;4.30;;;1.93;;
13834;SDS011;6988;52.614;13.500;2023-07-31T01:03:58;3.17;;;2.10;;
13834;SDS011;6988;52.614;13.500;2023-07-31T01:08:51;5.90;;;2.10;;
13834;SDS011;6988;52.614;13.500;2023-07-31T01:13:52;6.07;;;2.00;;
13834;SDS011;6988;52.614;13.500;2023-07-31T01:18:46;5.20;;;2.00;;
13834;SDS011;6988;52.614;13.500;2023-07-31T01:23:46;4.60;;;1.77;;
13834;SDS011;6988;52.614;13.500;2023-07-31T01:29:10;5.27;;;1.63;;
13834;SDS011;6988;52.614;13.500;2023-07-31T01:34:15;3.33;;;1.50;;
13834;SDS011;6988;52.614;13.500;2023-07-31T01:39:10;3.20;;;1.80;;
13834;SDS011;6988;52.614;13.500;2023-07-31T01:44:02;2.87;;;1.57;;
13834;SDS011;6988;52.614;13.500;2023-07-31T01:48:55;3.60;;;1.80;;
13834;SDS011;6988;52.614;13.500;2023-07-31T01:53:47;4.27;;;2.17;;
13834;SDS011;6988;52.614;13.500;2023-07-31T01:58:39;5.73;;;2.20;;
13834;SDS011;6988;52.614;13.500;2023-07-31T02:03:31;5.33;;;2.23;;
13834;SDS011;6988;52.614;13.500;2023-07-31T02:08:24;4.70;;;2.10;;
13834;SDS011;6988;52.614;13.500;2023-07-31T02:13:16;5.33;;;2.53;;
13834;SDS011;6988;52.614;13.500;2023-07-31T02:18:08;4.40;;;2.17;;
13834;SDS011;6988;52.614;13.500;2023-07-31T02:22:59;5.03;;;2.30;;
13834;SDS011;6988;52.614;13.500;2023-07-31T02:27:53;5.43;;;2.47;;
13834;SDS011;6988;52.614;13.500;2023-07-31T02:32:44;4.93;;;2.23;;
13834;SDS011;6988;52.614;13.500;2023-07-31T02:37:36;4.13;;;2.13;;
13834;SDS011;6988;52.614;13.500;2023-07-31T02:42:29;4.17;;;2.30;;
13834;SDS011;6988;52.614;13.500;2023-07-31T02:47:22;3.70;;;2.07;;
13834;SDS011;6988;52.614;13.500;2023-07-31T02:52:14;3.67;;;2.03;;
13834;SDS011;6988;52.614;13.500;2023-07-31T02:57:06;4.77;;;2.30;;
13834;SDS011;6988;52.614;13.500;2023-07-31T03:01:58;5.07;;;2.30;;
13834;SDS011;6988;52.614;13.500;2023-07-31T03:06:51;3.33;;;2.30;;
13834;SDS011;6988;52.614;13.500;2023-07-31T03:11:43;3.57;;;2.20;;
13834;SDS011;6988;52.614;13.500;2023-07-31T03:16:35;3.13;;;2.30;;
13834;SDS011;6988;52.614;13.500;2023-07-31T03:21:27;4.43;;;2.10;;
13834;SDS011;6988;52.614;13.500;2023-07-31T03:26:20;7.07;;;2.33;;
13834;SDS011;6988;52.614;13.500;2023-07-31T03:31:12;6.40;;;2.53;;
13834;SDS011;6988;52.614;13.500;2023-07-31T03:36:04;5.10;;;2.07;;
13834;SDS011;6988;52.614;13.500;2023-07-31T03:40:57;6.47;;;2.70;;
13834;SDS011;6988;52.614;13.500;2023-07-31T03:45:51;3.87;;;2.77;;
13834;SDS011;6988;52.614;13.500;2023-07-31T03:50:43;7.13;;;2.57;;
13834;SDS011;6988;52.614;13.500;2023-07-31T03:55:35;7.40;;;3.10;;
13834;SDS011;6988;52.614;13.500;2023-07-31T04:00:26;6.33;;;2.90;;
13834;SDS011;6988;52.614;13.500;2023-07-31T04:05:20;7.53;;;3.50;;
13834;SDS011;6988;52.614;13.500;2023-07-31T04:10:12;7.33;;;3.60;;
13834;SDS011;6988;52.614;13.500;2023-07-31T04:15:04;5.80;;;3.80;;
13834;SDS011;6988;52.614;13.500;2023-07-31T04:19:57;6.90;;;3.80;;
13834;SDS011;6988;52.614;13.500;2023-07-31T04:24:50;4.53;;;3.67;;
13834;SDS011;6988;52.614;13.500;2023-07-31T04:29:42;5.07;;;3.87;;
13834;SDS011;6988;52.614;13.500;2023-07-31T04:34:36;8.60;;;5.20;;
13834;SDS011;6988;52.614;13.500;2023-07-31T04:39:27;8.17;;;4.00;;
13834;SDS011;6988;52.614;13.500;2023-07-31T04:44:20;6.07;;;3.97;;
13834;SDS011;6988;52.614;13.500;2023-07-31T04:49:12;8.63;;;4.13;;
13834;SDS011;6988;52.614;13.500;2023-07-31T04:54:04;6.57;;;4.20;;
13834;SDS011;6988;52.614;13.500;2023-07-31T04:58:56;6.80;;;4.17;;
13834;SDS011;6988;52.614;13.500;2023-07-31T05:03:49;4.87;;;3.90;;
13834;SDS011;6988;52.614;13.500;2023-07-31T05:08:40;7.07;;;4.20;;
13834;SDS011;6988;52.614;13.500;2023-07-31T05:13:32;8.13;;;4.77;;
13834;SDS011;6988;52.614;13.500;2023-07-31T05:18:24;8.17;;;4.83;;
13834;SDS011;6988;52.614;13.500;2023-07-31T05:23:17;8.30;;;4.60;;
13834;SDS011;6988;52.614;13.500;2023-07-31T05:28:08;7.50;;;4.20;;
13834;SDS011;6988;52.614;13.500;2023-07-31T05:33:00;8.77;;;4.67;;
13834;SDS011;6988;52.614;13.500;2023-07-31T05:37:52;6.30;;;4.23;;
13834;SDS011;6988;52.614;13.500;2023-07-31T05:42:45;6.97;;;4.37;;
13834;SDS011;6988;52.614;13.500;2023-07-31T05:47:37;7.23;;;4.40;;
13834;SDS011;6988;52.614;13.500;2023-07-31T05:52:29;7.13;;;4.03;;
13834;SDS011;6988;52.614;13.500;2023-07-31T05:57:20;7.40;;;4.37;;
13834;SDS011;6988;52.614;13.500;2023-07-31T06:02:13;8.40;;;3.90;;
13834;SDS011;6988;52.614;13.500;2023-07-31T06:07:05;6.93;;;3.70;;
13834;SDS011;6988;52.614;13.500;2023-07-31T06:11:58;6.10;;;3.90;;
13834;SDS011;6988;52.614;13.500;2023-07-31T06:16:50;4.20;;;2.97;;
13834;SDS011;6988;52.614;13.500;2023-07-31T06:21:43;8.23;;;3.90;;
13834;SDS011;6988;52.614;13.500;2023-07-31T06:26:34;7.23;;;3.60;;
13834;SDS011;6988;52.614;13.500;2023-07-31T06:31:26;7.87;;;4.00;;
13834;SDS011;6988;52.614;13.500;2023-07-31T06:36:18;6.03;;;3.63;;
13834;SDS011;6988;52.614;13.500;2023-07-31T06:41:11;6.10;;;3.50;;
13834;SDS011;6988;52.614;13.500;2023-07-31T06:46:04;5.50;;;3.50;;
13834;SDS011;6988;52.614;13.500;2023-07-31T06:50:56;6.40;;;3.40;;
13834;SDS011;6988;52.614;13.500;2023-07-31T06:55:48;4.60;;;2.90;;
13834;SDS011;6988;52.614;13.500;2023-07-31T07:00:43;7.27;;;3.33;;
13834;SDS011;6988;52.614;13.500;2023-07-31T07:05:35;3.83;;;2.80;;
13834;SDS011;6988;52.614;13.500;2023-07-31T07:10:26;4.70;;;2.63;;
13834;SDS011;6988;52.614;13.500;2023-07-31T07:15:18;8.03;;;3.03;;
13834;SDS011;6988;52.614;13.500;2023-07-31T07:20:11;6.97;;;2.97;;
13834;SDS011;6988;52.614;13.500;2023-07-31T07:25:04;5.33;;;2.90;;
13834;SDS011;6988;52.614;13.500;2023-07-31T07:29:57;5.93;;;2.90;;
13834;SDS011;6988;52.614;13.500;2023-07-31T07:34:49;4.67;;;2.43;;
13834;SDS011;6988;52.614;13.500;2023-07-31T07:39:42;4.13;;;2.67;;
13834;SDS011;6988;52.614;13.500;2023-07-31T07:44:34;5.17;;;2.50;;
13834;SDS011;6988;52.614;13.500;2023-07-31T07:49:26;3.50;;;2.07;;
13834;SDS011;6988;52.614;13.500;2023-07-31T07:54:18;3.90;;;2.20;;
13834;SDS011;6988;52.614;13.500;2023-07-31T07:59:12;3.97;;;2.30;;
13834;SDS011;6988;52.614;13.500;2023-07-31T08:04:04;3.03;;;2.20;;
13834;SDS011;6988;52.614;13.500;2023-07-31T08:08:55;4.07;;;2.30;;
13834;SDS011;6988;52.614;13.500;2023-07-31T08:13:47;5.40;;;2.70;;
13834;SDS011;6988;52.614;13.500;2023-07-31T08:18:40;3.70;;;2.57;;
13834;SDS011;6988;52.614;13.500;2023-07-31T08:23:33;5.03;;;2.60;;
13834;SDS011;6988;52.614;13.500;2023-07-31T08:28:24;4.53;;;2.53;;
13834;SDS011;6988;52.614;13.500;2023-07-31T08:33:16;3.30;;;1.90;;
13834;SDS011;6988;52.614;13.500;2023-07-31T08:38:09;3.50;;;1.90;;
13834;SDS011;6988;52.614;13.500;2023-07-31T08:43:01;3.60;;;2.00;;
13834;SDS011;6988;52.614;13.500;2023-07-31T08:47:53;3.13;;;2.17;;
13834;SDS011;6988;52.614;13.500;2023-07-31T08:52:47;3.00;;;1.77;;
13834;SDS011;6988;52.614;13.500;2023-07-31T08:57:42;2.73;;;2.10;;
13834;SDS011;6988;52.614;13.500;2023-07-31T09:02:37;2.70;;;1.77;;
13834;SDS011;6988;52.614;13.500;2023-07-31T09:07:36;2.70;;;1.90;;
13834;SDS011;6988;52.614;13.500;2023-07-31T09:12:28;3.33;;;2.00;;
13834;SDS011;6988;52.614;13.500;2023-07-31T09:17:29;2.13;;;1.60;;
13834;SDS011;6988;52.614;13.500;2023-07-31T09:22:30;3.90;;;1.90;;
13834;SDS011;6988;52.614;13.500;2023-07-31T09:27:24;3.93;;;1.80;;
13834;SDS011;6988;52.614;13.500;2023-07-31T09:32:16;2.43;;;1.90;;
13834;SDS011;6988;52.614;13.500;2023-07-31T09:37:10;4.73;;;2.10;;
13834;SDS011;6988;52.614;13.500;2023-07-31T09:42:02;1.87;;;1.60;;
13834;SDS011;6988;52.614;13.500;2023-07-31T09:46:55;2.97;;;1.60;;
13834;SDS011;6988;52.614;13.500;2023-07-31T09:51:47;3.50;;;1.53;;
13834;SDS011;6988;52.614;13.500;2023-07-31T09:56:43;3.50;;;1.57;;
13834;SDS011;6988;52.614;13.500;2023-07-31T10:01:37;3.07;;;1.83;;
13834;SDS011;6988;52.614;13.500;2023-07-31T10:06:30;1.73;;;1.50;;
13834;SDS011;6988;52.614;13.500;2023-07-31T10:11:25;1.90;;;1.50;;
13834;SDS011;6988;52.614;13.500;2023-07-31T10:16:22;2.10;;;1.50;;
13834;SDS011;6988;52.614;13.500;2023-07-31T10:21:14;3.70;;;1.67;;
13834;SDS011;6988;52.614;13.500;2023-07-31T10:26:07;1.70;;;1.60;;
13834;SDS011;6988;52.614;13.500;2023-07-31T10:30:59;3.43;;;1.70;;
13834;SDS011;6988;52.614;13.500;2023-07-31T10:41:09;4.60;;;2.60;;
13834;SDS011;6988;52.614;13.500;2023-07-31T10:46:01;4.90;;;3.07;;
13834;SDS011;6988;52.614;13.500;2023-07-31T10:50:59;5.40;;;3.03;;
13834;SDS011;6988;52.614;13.500;2023-07-31T10:55:52;5.07;;;3.40;;
13834;SDS011;6988;52.614;13.500;2023-07-31T11:00:49;6.53;;;3.77;;
13834;SDS011;6988;52.614;13.500;2023-07-31T11:05:46;5.07;;;3.77;;
13834;SDS011;6988;52.614;13.500;2023-07-31T11:10:43;6.03;;;3.90;;
13834;SDS011;6988;52.614;13.500;2023-07-31T11:15:38;5.93;;;3.57;;
13834;SDS011;6988;52.614;13.500;2023-07-31T11:20:30;5.30;;;3.20;;
13834;SDS011;6988;52.614;13.500;2023-07-31T11:25:22;4.60;;;3.10;;
13834;SDS011;6988;52.614;13.500;2023-07-31T11:30:14;6.93;;;3.30;;
13834;SDS011;6988;52.614;13.500;2023-07-31T11:35:07;5.30;;;2.80;;
13834;SDS011;6988;52.614;13.500;2023-07-31T11:40:04;4.80;;;2.90;;
13834;SDS011;6988;52.614;13.500;2023-07-31T11:44:56;6.20;;;3.50;;
13834;SDS011;6988;52.614;13.500;2023-07-31T11:49:48;5.77;;;3.20;;
13834;SDS011;6988;52.614;13.500;2023-07-31T11:54:42;5.73;;;3.27;;
13834;SDS011;6988;52.614;13.500;2023-07-31T11:59:34;5.07;;;3.67;;
13834;SDS011;6988;52.614;13.500;2023-07-31T12:04:26;4.93;;;3.27;;
13834;SDS011;6988;52.614;13.500;2023-07-31T12:09:18;7.20;;;3.20;;
13834;SDS011;6988;52.614;13.500;2023-07-31T12:14:19;4.37;;;2.87;;
13834;SDS011;6988;52.614;13.500;2023-07-31T12:19:12;4.97;;;2.70;;
13834;SDS011;6988;52.614;13.500;2023-07-31T12:24:04;5.47;;;3.10;;
13834;SDS011;6988;52.614;13.500;2023-07-31T12:28:56;3.77;;;2.80;;
13834;SDS011;6988;52.614;13.500;2023-07-31T12:33:50;4.73;;;2.90;;
13834;SDS011;6988;52.614;13.500;2023-07-31T12:38:42;6.50;;;2.97;;
13834;SDS011;6988;52.614;13.500;2023-07-31T12:43:35;5.40;;;3.13;;
13834;SDS011;6988;52.614;13.500;2023-07-31T12:48:28;6.23;;;2.93;;
13834;SDS011;6988;52.614;13.500;2023-07-31T12:53:21;4.23;;;2.90;;
13834;SDS011;6988;52.614;13.500;2023-07-31T12:58:13;4.17;;;2.73;;
13834;SDS011;6988;52.614;13.500;2023-07-31T13:03:05;5.00;;;2.80;;
13834;SDS011;6988;52.614;13.500;2023-07-31T13:07:57;5.87;;;3.10;;
13834;SDS011;6988;52.614;13.500;2023-07-31T13:12:50;5.57;;;3.27;;
13834;SDS011;6988;52.614;13.500;2023-07-31T13:17:42;5.10;;;2.97;;
13834;SDS011;6988;52.614;13.500;2023-07-31T13:22:33;4.43;;;2.90;;
13834;SDS011;6988;52.614;13.500;2023-07-31T13:27:25;5.60;;;2.83;;
13834;SDS011;6988;52.614;13.500;2023-07-31T13:32:18;4.30;;;2.27;;
13834;SDS011;6988;52.614;13.500;2023-07-31T13:37:11;5.67;;;2.60;;
13834;SDS011;6988;52.614;13.500;2023-07-31T13:42:04;6.23;;;2.83;;
13834;SDS011;6988;52.614;13.500;2023-07-31T13:46:58;3.37;;;2.13;;
13834;SDS011;6988;52.614;13.500;2023-07-31T13:51:51;5.60;;;2.53;;
13834;SDS011;6988;52.614;13.500;2023-07-31T13:56:43;5.13;;;2.70;;
13834;SDS011;6988;52.614;13.500;2023-07-31T14:01:35;4.87;;;2.60;;
13834;SDS011;6988;52.614;13.500;2023-07-31T14:06:27;7.73;;;2.40;;
13834;SDS011;6988;52.614;13.500;2023-07-31T14:11:20;5.87;;;2.67;;
13834;SDS011;6988;52.614;13.500;2023-07-31T14:16:12;4.00;;;2.80;;
13834;SDS011;6988;52.614;13.500;2023-07-31T14:21:04;4.00;;;2.67;;
13834;SDS011;6988;52.614;13.500;2023-07-31T14:25:56;5.73;;;2.70;;
13834;SDS011;6988;52.614;13.500;2023-07-31T14:30:49;4.50;;;2.60;;
13834;SDS011;6988;52.614;13.500;2023-07-31T14:35:41;4.33;;;2.70;;
13834;SDS011;6988;52.614;13.500;2023-07-31T14:40:32;4.50;;;3.03;;
13834;SDS011;6988;52.614;13.500;2023-07-31T14:45:24;5.00;;;2.37;;
13834;SDS011;6988;52.614;13.500;2023-07-31T14:50:19;6.53;;;2.80;;
13834;SDS011;6988;52.614;13.500;2023-07-31T14:55:11;7.27;;;2.80;;
13834;SDS011;6988;52.614;13.500;2023-07-31T15:00:03;3.90;;;2.83;;
13834;SDS011;6988;52.614;13.500;2023-07-31T15:04:57;3.67;;;2.83;;
13834;SDS011;6988;52.614;13.500;2023-07-31T15:09:50;4.40;;;2.60;;
13834;SDS011;6988;52.614;13.500;2023-07-31T15:14:42;5.03;;;2.50;;
13834;SDS011;6988;52.614;13.500;2023-07-31T15:19:34;3.87;;;2.57;;
13834;SDS011;6988;52.614;13.500;2023-07-31T15:24:26;4.37;;;2.60;;
13834;SDS011;6988;52.614;13.500;2023-07-31T15:29:19;5.25;;;2.60;;
13834;SDS011;6988;52.614;13.500;2023-07-31T15:34:12;4.43;;;2.80;;
13834;SDS011;6988;52.614;13.500;2023-07-31T15:39:04;2.93;;;2.50;;
13834;SDS011;6988;52.614;13.500;2023-07-31T15:44:00;5.43;;;2.50;;
13834;SDS011;6988;52.614;13.500;2023-07-31T15:48:53;3.73;;;2.43;;
13834;SDS011;6988;52.614;13.500;2023-07-31T15:53:45;5.37;;;2.60;;
13834;SDS011;6988;52.614;13.500;2023-07-31T15:58:37;4.93;;;2.90;;
13834;SDS011;6988;52.614;13.500;2023-07-31T16:03:29;5.77;;;2.93;;
13834;SDS011;6988;52.614;13.500;2023-07-31T16:08:22;5.87;;;2.70;;
13834;SDS011;6988;52.614;13.500;2023-07-31T16:13:14;4.27;;;2.57;;
13834;SDS011;6988;52.614;13.500;2023-07-31T16:18:06;4.47;;;3.03;;
13834;SDS011;6988;52.614;13.500;2023-07-31T16:22:57;5.60;;;3.27;;
13834;SDS011;6988;52.614;13.500;2023-07-31T16:27:50;4.53;;;3.10;;
13834;SDS011;6988;52.614;13.500;2023-07-31T16:32:42;5.23;;;2.90;;
13834;SDS011;6988;52.614;13.500;2023-07-31T16:37:36;4.50;;;3.07;;
13834;SDS011;6988;52.614;13.500;2023-07-31T16:42:30;7.07;;;2.93;;
13834;SDS011;6988;52.614;13.500;2023-07-31T16:47:23;4.70;;;2.93;;
13834;SDS011;6988;52.614;13.500;2023-07-31T16:52:15;4.20;;;2.97;;
13834;SDS011;6988;52.614;13.500;2023-07-31T16:57:07;5.20;;;2.80;;
13834;SDS011;6988;52.614;13.500;2023-07-31T17:01:59;3.80;;;2.77;;
13834;SDS011;6988;52.614;13.500;2023-07-31T17:06:52;4.60;;;2.60;;
13834;SDS011;6988;52.614;13.500;2023-07-31T17:11:44;3.93;;;2.60;;
13834;SDS011;6988;52.614;13.500;2023-07-31T17:16:36;5.33;;;2.57;;
13834;SDS011;6988;52.614;13.500;2023-07-31T17:21:27;5.13;;;2.90;;
13834;SDS011;6988;52.614;13.500;2023-07-31T17:26:21;4.17;;;2.33;;
13834;SDS011;6988;52.614;13.500;2023-07-31T17:31:13;4.20;;;2.63;;
13834;SDS011;6988;52.614;13.500;2023-07-31T17:36:05;3.37;;;2.50;;
13834;SDS011;6988;52.614;13.500;2023-07-31T17:40:56;4.80;;;2.80;;
13834;SDS011;6988;52.614;13.500;2023-07-31T17:45:50;2.73;;;1.73;;
13834;SDS011;6988;52.614;13.500;2023-07-31T17:50:42;2.80;;;2.20;;
13834;SDS011;6988;52.614;13.500;2023-07-31T17:55:33;4.83;;;2.90;;
13834;SDS011;6988;52.614;13.500;2023-07-31T18:00:25;3.73;;;2.10;;
13834;SDS011;6988;52.614;13.500;2023-07-31T18:05:19;4.17;;;2.53;;
13834;SDS011;6988;52.614;13.500;2023-07-31T18:10:11;4.43;;;2.80;;
13834;SDS011;6988;52.614;13.500;2023-07-31T18:15:03;4.50;;;2.70;;
13834;SDS011;6988;52.614;13.500;2023-07-31T18:19:55;7.07;;;2.70;;
13834;SDS011;6988;52.614;13.500;2023-07-31T18:24:48;4.07;;;2.60;;
13834;SDS011;6988;52.614;13.500;2023-07-31T18:29:40;3.17;;;2.50;;
13834;SDS011;6988;52.614;13.500;2023-07-31T18:34:32;3.75;;;2.70;;
13834;SDS011;6988;52.614;13.500;2023-07-31T18:39:24;5.40;;;2.80;;
13834;SDS011;6988;52.614;13.500;2023-07-31T18:44:17;5.23;;;2.77;;
13834;SDS011;6988;52.614;13.500;2023-07-31T18:49:09;3.43;;;2.40;;
13834;SDS011;6988;52.614;13.500;2023-07-31T18:54:00;3.53;;;2.50;;
13834;SDS011;6988;52.614;13.500;2023-07-31T18:58:52;3.03;;;2.10;;
13834;SDS011;6988;52.614;13.500;2023-07-31T19:03:46;4.23;;;2.13;;
13834;SDS011;6988;52.614;13.500;2023-07-31T19:08:37;6.77;;;2.70;;
13834;SDS011;6988;52.614;13.500;2023-07-31T19:13:29;2.50;;;2.27;;
13834;SDS011;6988;52.614;13.500;2023-07-31T19:18:21;4.17;;;2.60;;
13834;SDS011;6988;52.614;13.500;2023-07-31T19:23:14;3.60;;;2.43;;
13834;SDS011;6988;52.614;13.500;2023-07-31T19:28:06;4.30;;;2.70;;
13834;SDS011;6988;52.614;13.500;2023-07-31T19:32:58;6.83;;;2.73;;
13834;SDS011;6988;52.614;13.500;2023-07-31T19:37:49;4.37;;;2.57;;
13834;SDS011;6988;52.614;13.500;2023-07-31T19:42:42;5.20;;;2.70;;
13834;SDS011;6988;52.614;13.500;2023-07-31T19:47:34;6.10;;;2.83;;
13834;SDS011;6988;52.614;13.500;2023-07-31T19:52:26;5.40;;;3.00;;
13834;SDS011;6988;52.614;13.500;2023-07-31T19:57:18;5.47;;;2.63;;
13834;SDS011;6988;52.614;13.500;2023-07-31T20:02:11;6.00;;;3.00;;
13834;SDS011;6988;52.614;13.500;2023-07-31T20:07:03;4.80;;;2.70;;
13834;SDS011;6988;52.614;13.500;2023-07-31T20:11:56;5.37;;;2.77;;
13834;SDS011;6988;52.614;13.500;2023-07-31T20:16:48;4.33;;;2.80;;
13834;SDS011;6988;52.614;13.500;2023-07-31T20:21:42;4.97;;;2.80;;
13834;SDS011;6988;52.614;13.500;2023-07-31T20:26:33;4.30;;;3.23;;
13834;SDS011;6988;52.614;13.500;2023-07-31T20:31:25;5.30;;;2.80;;
13834;SDS011;6988;52.614;13.500;2023-07-31T20:36:17;4.10;;;2.63;;
13834;SDS011;6988;52.614;13.500;2023-07-31T20:41:10;4.17;;;2.60;;
13834;SDS011;6988;52.614;13.500;2023-07-31T20:46:02;5.10;;;2.93;;
13834;SDS011;6988;52.614;13.500;2023-07-31T20:50:58;5.97;;;3.13;;
13834;SDS011;6988;52.614;13.500;2023-07-31T20:55:51;4.87;;;2.90;;
13834;SDS011;6988;52.614;13.500;2023-07-31T21:00:44;5.10;;;3.03;;
13834;SDS011;6988;52.614;13.500;2023-07-31T21:05:36;6.63;;;3.30;;
13834;SDS011;6988;52.614;13.500;2023-07-31T21:10:28;5.83;;;3.30;;
13834;SDS011;6988;52.614;13.500;2023-07-31T21:15:20;6.50;;;3.60;;
13834;SDS011;6988;52.614;13.500;2023-07-31T21:20:13;7.97;;;3.83;;
13834;SDS011;6988;52.614;13.500;2023-07-31T21:25:06;7.03;;;3.67;;
13834;SDS011;6988;52.614;13.500;2023-07-31T21:29:58;7.17;;;3.63;;
13834;SDS011;6988;52.614;13.500;2023-07-31T21:34:50;5.80;;;3.43;;
13834;SDS011;6988;52.614;13.500;2023-07-31T21:39:43;8.97;;;3.57;;
13834;SDS011;6988;52.614;13.500;2023-07-31T21:44:35;7.03;;;3.67;;
13834;SDS011;6988;52.614;13.500;2023-07-31T22:04:00;5.73;;;3.50;;
13834;SDS011;6988;52.614;13.500;2023-07-31T22:08:52;5.97;;;3.80;;
13834;SDS011;6988;52.614;13.500;2023-07-31T22:13:44;7.10;;;3.90;;
13834;SDS011;6988;52.614;13.500;2023-07-31T22:18:36;6.07;;;3.80;;
13834;SDS011;6988;52.614;13.500;2023-07-31T22:23:29;8.00;;;4.30;;
13834;SDS011;6988;52.614;13.500;2023-07-31T22:28:21;5.73;;;3.60;;
13834;SDS011;6988;52.614;13.500;2023-07-31T22:33:13;6.00;;;3.90;;
13834;SDS011;6988;52.614;13.500;2023-07-31T22:38:05;6.13;;;3.40;;
13834;SDS011;6988;52.614;13.500;2023-07-31T22:42:58;7.07;;;3.77;;
13834;SDS011;6988;52.614;13.500;2023-07-31T22:47:50;8.30;;;3.97;;
13834;SDS011;6988;52.614;13.500;2023-07-31T22:52:42;9.47;;;3.60;;
13834;SDS011;6988;52.614;13.500;2023-07-31T22:57:34;6.77;;;3.70;;
13834;SDS011;6988;52.614;13.500;2023-07-31T23:02:27;6.00;;;3.70;;
13834;SDS011;6988;52.614;13.500;2023-07-31T23:07:19;8.27;;;3.60;;
13834;SDS011;6988;52.614;13.500;2023-07-31T23:12:11;8.33;;;3.50;;
13834;SDS011;6988;52.614;13.500;2023-07-31T23:17:03;10.40;;;3.80;;
13834;SDS011;6988;52.614;13.500;2023-07-31T23:21:56;8.37;;;3.97;;
13834;SDS011;6988;52.614;13.500;2023-07-31T23:26:48;5.97;;;3.70;;
13834;SDS011;6988;52.614;13.500;2023-07-31T23:31:41;7.30;;;3.87;;
13834;SDS011;6988;52.614;13.500;2023-07-31T23:36:34;7.53;;;3.73;;
13834;SDS011;6988;52.614;13.500;2023-07-31T23:41:28;7.10;;;4.20;;
13834;SDS011;6988;52.614;13.500;2023-07-31T23:46:20;7.27;;;3.80;;
13834;SDS011;6988;52.614;13.500;2023-07-31T23:51:12;6.97;;;3.80;;
13834;SDS011;6988;52.614;13.500;2023-07-31T23:56:05;7.93;;;4.53;;
